This is the latest recevied weather packets stored in our database for station/object GW1495. If no packets are shown the sender has not sent any weather packets the latest 10 day(s).
| Time | Temp. | Humidity | Pressure | Rain* | Wind** | Luminosity | Snow |
|---|---|---|---|---|---|---|---|
| 1777660943 | 21.11° C | 30% | 1016.9 hPa | 0 mm | - | - | - |
| 1777658814 | 21.11° C | 29% | 1017.2 hPa | 0 mm | - | - | - |
| 1777653757 | 18.33° C | 34% | 1017.9 hPa | 0 mm | - | - | - |
| 1777646530 | 11.67° C | 72% | 1019.9 hPa | 0 mm | - | - | - |
| 1777645821 | 10.56° C | 77% | 1019.9 hPa | 0 mm | - | - | - |
| 1777645450 | 10° C | 77% | 1019.6 hPa | 0 mm | - | - | - |
| 1777643292 | 8.33° C | 83% | 1019.9 hPa | 0 mm | - | - | - |
| 1777639339 | 6.11° C | 92% | 1019.6 hPa | 0 mm | - | - | - |
| 1777638989 | 6.11° C | 92% | 1019.6 hPa | 0 mm | - | - | - |
| 1777638616 | 5.56° C | 93% | 1019.9 hPa | 0 mm | - | - | - |
| 1777630365 | 2.22° C | 95% | 1019.9 hPa | 0 mm | - | - | - |
| 1777629263 | 2.22° C | 95% | 1020.3 hPa | 0 mm | - | - | - |
| 1777628902 | 2.22° C | 95% | 1020.3 hPa | 0 mm | - | - | - |
| 1777626758 | 2.22° C | 94% | 1020.6 hPa | 0 mm | - | - | - |
| 1777625668 | 2.78° C | 95% | 1020.6 hPa | 0 mm | - | - | - |
| 1777624612 | 2.78° C | 95% | 1020.9 hPa | 0 mm | - | - | - |
| 1777624253 | 2.78° C | 95% | 1020.9 hPa | 0 mm | - | - | - |
| 1777623876 | 2.78° C | 94% | 1020.6 hPa | 0 mm | - | - | - |
| 1777623144 | 2.78° C | 95% | 1020.6 hPa | 0 mm | - | - | - |
| 1777621373 | 3.33° C | 94% | 1020.6 hPa | 0 mm | - | - | - |
| 1777620987 | 3.33° C | 94% | 1020.6 hPa | 0 mm | - | - | - |
| 1777618453 | 3.33° C | 93% | 1020.6 hPa | 0 mm | - | - | - |
| 1777615948 | 4.44° C | 92% | 1020.9 hPa | 0 mm | - | - | - |
| 1777613420 | 4.44° C | 92% | 1020.9 hPa | 0 mm | - | - | - |
| 1777605170 | 5.56° C | 89% | 1021.6 hPa | 0 mm | - | - | - |
* Rain since midnight (hover to see other rain measurements)
** Current wind speed in m/s (hover to see current wind gust speed)